createdAt,value
2023-03-17T00:02:25.556Z,7.58
2023-03-17T00:07:30.596Z,7.32
2023-03-17T00:12:34.195Z,7.32
2023-03-17T00:17:38.205Z,5.94
2023-03-17T00:22:43.223Z,7.50
2023-03-17T00:27:46.819Z,6.93
2023-03-17T00:32:52.104Z,7.39
2023-03-17T00:37:59.485Z,5.84
2023-03-17T00:43:03.213Z,7.37
2023-03-17T00:48:14.048Z,7.36
2023-03-17T00:53:21.780Z,6.92
2023-03-17T00:58:28.798Z,7.20
2023-03-17T01:03:33.125Z,7.07
2023-03-17T01:08:39.436Z,7.26
2023-03-17T01:13:44.862Z,7.26
2023-03-17T01:18:48.734Z,7.18
2023-03-17T01:23:53.630Z,6.20
2023-03-17T01:28:57.298Z,6.26
2023-03-17T01:34:01.504Z,5.23
2023-03-17T01:39:07.460Z,7.40
2023-03-17T01:44:16.833Z,7.01
2023-03-17T01:49:25.752Z,7.42
2023-03-17T01:54:36.660Z,7.45
2023-03-17T01:59:45.433Z,7.42
2023-03-17T02:04:49.616Z,6.60
2023-03-17T02:09:55.747Z,7.38
2023-03-17T02:14:59.944Z,6.67
2023-03-17T02:21:03.766Z,7.27
2023-03-17T02:26:09.472Z,7.29
2023-03-17T02:31:13.347Z,5.62
2023-03-17T02:36:16.937Z,6.90
2023-03-17T02:41:24.922Z,6.94
2023-03-17T02:46:28.785Z,6.91
2023-03-17T02:51:36.354Z,7.10
2023-03-17T02:56:42.138Z,6.88
2023-03-17T03:01:48.521Z,6.90
2023-03-17T03:06:52.474Z,7.03
2023-03-17T03:11:57.516Z,7.03
2023-03-17T03:17:01.184Z,6.99
2023-03-17T03:22:04.814Z,6.99
2023-03-17T03:27:10.078Z,7.01
2023-03-17T03:32:13.869Z,6.74
2023-03-17T03:37:17.390Z,6.73
2023-03-17T03:42:22.513Z,6.60
2023-03-17T03:47:26.441Z,6.53
2023-03-17T03:52:30.040Z,6.80
2023-03-17T03:57:34.918Z,6.26
2023-03-17T04:02:38.744Z,5.98
2023-03-17T04:07:43.656Z,6.70
2023-03-17T04:12:48.574Z,6.67
2023-03-17T04:17:55.003Z,6.61
2023-03-17T04:22:58.787Z,6.10
2023-03-17T04:28:03.735Z,6.55
2023-03-17T04:33:07.454Z,5.86
2023-03-17T04:38:13.835Z,6.51
2023-03-17T04:43:18.787Z,6.48
2023-03-17T04:48:22.515Z,6.01
2023-03-17T04:53:28.990Z,6.42
2023-03-17T04:58:33.963Z,6.46
2023-03-17T05:03:37.581Z,6.40
2023-03-17T05:08:41.112Z,6.27
2023-03-17T05:13:46.310Z,6.08
2023-03-17T05:18:49.962Z,6.34
2023-03-17T05:23:55.934Z,6.00
2023-03-17T05:29:01.192Z,6.32
2023-03-17T05:34:04.998Z,6.16
2023-03-17T05:39:09.183Z,6.23
2023-03-17T05:44:14.587Z,6.21
2023-03-17T05:49:19.345Z,6.16
2023-03-17T05:54:24.281Z,4.63
2023-03-17T05:59:29.231Z,6.16
2023-03-17T06:04:32.955Z,3.91
2023-03-17T06:09:37.102Z,6.13
2023-03-17T06:14:42.164Z,5.30
2023-03-17T06:19:47.781Z,5.96
2023-03-17T06:24:53.694Z,5.87
2023-03-17T06:30:00.358Z,6.08
2023-03-17T06:35:29.450Z,6.42
2023-03-17T06:40:34.179Z,5.43
2023-03-17T06:45:39.455Z,6.16
2023-03-17T06:50:43.039Z,6.40
2023-03-17T06:55:48.202Z,6.48
2023-03-17T07:00:54.192Z,6.29
2023-03-17T07:05:58.945Z,6.65
2023-03-17T07:11:04.217Z,4.26
2023-03-17T07:16:09.720Z,6.93
2023-03-17T07:21:13.626Z,7.05
2023-03-17T07:26:18.129Z,6.61
2023-03-17T07:31:23.411Z,6.83
2023-03-17T07:36:27.544Z,7.51
2023-03-17T07:41:31.433Z,5.72
2023-03-17T07:46:37.011Z,7.51
2023-03-17T07:51:43.244Z,7.56
2023-03-17T07:56:47.010Z,8.07
2023-03-17T08:01:52.326Z,8.03
2023-03-17T08:06:55.942Z,7.96
2023-03-17T08:11:59.510Z,8.32
2023-03-17T08:17:07.776Z,8.54
2023-03-17T08:22:12.534Z,7.80
2023-03-17T08:27:16.343Z,8.89
2023-03-17T08:32:21.362Z,9.10
2023-03-17T08:37:24.931Z,7.89
2023-03-17T08:42:52.554Z,9.38
2023-03-17T08:47:57.714Z,9.49
2023-03-17T08:53:01.563Z,9.75
2023-03-17T08:58:11.566Z,9.63
2023-03-17T09:03:16.699Z,10.02
2023-03-17T09:08:20.464Z,10.27
2023-03-17T09:13:24.326Z,10.39
2023-03-17T09:18:31.458Z,10.35
2023-03-17T09:23:35.110Z,10.74
2023-03-17T09:28:39.049Z,9.18
2023-03-17T09:33:44.699Z,11.53
2023-03-17T09:38:48.669Z,11.69
2023-03-17T09:44:00.938Z,11.80
2023-03-17T09:49:09.609Z,10.66
2023-03-17T09:54:18.511Z,12.13
2023-03-17T09:59:31.633Z,12.62
2023-03-17T10:04:37.299Z,12.49
2023-03-17T10:09:46.742Z,13.05
2023-03-17T10:14:59.493Z,12.97
2023-03-17T10:20:11.410Z,12.31
2023-03-17T10:25:17.821Z,13.30
2023-03-17T10:30:23.853Z,14.02
2023-03-17T10:35:29.917Z,14.14
2023-03-17T10:40:34.666Z,14.40
2023-03-17T10:45:43.253Z,14.15
2023-03-17T10:50:49.710Z,12.88
2023-03-17T10:55:55.533Z,14.74
2023-03-17T11:01:03.817Z,15.28
2023-03-17T11:06:10.826Z,15.44
2023-03-17T11:11:26.038Z,15.87
2023-03-17T11:16:29.941Z,15.83
2023-03-17T11:21:47.756Z,15.91
2023-03-17T11:27:01.800Z,16.62
2023-03-17T11:32:22.162Z,16.77
2023-03-17T11:37:41.662Z,15.45
2023-03-17T11:42:54.757Z,16.86
2023-03-17T11:48:16.816Z,17.03
2023-03-17T11:53:54.045Z,17.54
2023-03-17T11:59:02.816Z,17.44
2023-03-17T12:04:18.588Z,17.03
2023-03-17T12:09:31.921Z,18.17
2023-03-17T12:14:39.533Z,18.28
2023-03-17T12:19:54.908Z,17.91
2023-03-17T12:25:11.423Z,18.60
2023-03-17T12:30:26.048Z,17.37
2023-03-17T12:35:32.896Z,18.81
2023-03-17T12:40:51.323Z,19.00
2023-03-17T12:46:14.276Z,18.14
2023-03-17T12:51:38.430Z,19.21
2023-03-17T12:56:47.762Z,19.19
2023-03-17T13:01:58.445Z,19.55
2023-03-17T13:07:07.484Z,19.66
2023-03-17T13:12:56.113Z,19.84
2023-03-17T13:18:24.814Z,20.00
2023-03-17T13:23:37.048Z,19.86
2023-03-17T13:28:50.695Z,20.07
2023-03-17T13:33:56.336Z,20.09
2023-03-17T13:39:35.574Z,20.40
2023-03-17T13:44:54.692Z,20.43
2023-03-17T13:50:04.063Z,20.50
2023-03-17T13:55:39.929Z,20.53
2023-03-17T14:00:47.657Z,20.25
2023-03-17T14:05:52.735Z,20.60
2023-03-17T14:10:59.462Z,20.83
2023-03-17T14:16:13.424Z,20.91
2023-03-17T14:21:24.227Z,20.91
2023-03-17T14:26:29.943Z,20.30
2023-03-17T14:31:35.279Z,19.31
2023-03-17T14:36:38.962Z,20.81
2023-03-17T14:41:42.886Z,20.78
2023-03-17T14:46:48.781Z,18.85
2023-03-17T14:51:56.126Z,20.55
2023-03-17T14:57:03.357Z,20.83
2023-03-17T15:02:22.246Z,20.91
2023-03-17T15:07:37.225Z,20.89
2023-03-17T15:12:41.419Z,20.74
2023-03-17T15:17:51.582Z,20.31
2023-03-17T15:22:58.390Z,21.10
2023-03-17T15:28:02.169Z,20.88
2023-03-17T15:33:21.227Z,20.74
2023-03-17T15:38:26.764Z,20.78
2023-03-17T15:43:30.367Z,19.96
2023-03-17T15:48:39.297Z,20.33
2023-03-17T15:53:42.918Z,20.52
2023-03-17T15:58:48.099Z,20.20
2023-03-17T16:03:54.290Z,20.43
2023-03-17T16:08:57.885Z,20.08
2023-03-17T16:14:02.826Z,20.15
2023-03-17T16:19:10.335Z,20.06
2023-03-17T16:24:20.561Z,19.97
2023-03-17T16:29:23.863Z,20.03
2023-03-17T16:34:28.578Z,19.66
2023-03-17T16:39:32.762Z,19.46
2023-03-17T16:44:36.511Z,18.43
2023-03-17T16:56:30.085Z,18.31
2023-03-17T17:01:34.090Z,18.25
2023-03-17T17:06:38.053Z,18.72
2023-03-17T17:11:43.147Z,17.69
2023-03-17T17:16:47.009Z,18.58
2023-03-17T17:21:50.709Z,18.05
2023-03-17T17:26:55.648Z,18.30
2023-03-17T17:31:59.312Z,17.83
2023-03-17T17:37:03.105Z,17.21
2023-03-17T17:42:12.582Z,18.12
2023-03-17T17:47:16.849Z,17.56
2023-03-17T17:52:20.484Z,17.57
2023-03-17T17:57:25.645Z,17.66
2023-03-17T18:02:29.169Z,17.64
2023-03-17T18:07:33.163Z,17.59
2023-03-17T18:12:38.202Z,16.54
2023-03-17T18:17:44.851Z,16.92
2023-03-17T18:22:49.697Z,17.40
2023-03-17T18:27:55.055Z,16.87
2023-03-17T18:33:09.965Z,16.78
2023-03-17T18:38:13.588Z,16.42
2023-03-17T18:43:18.426Z,16.85
2023-03-17T18:48:22.415Z,16.07
2023-03-17T18:53:26.274Z,16.71
2023-03-17T18:58:31.396Z,16.64
2023-03-17T19:03:35.665Z,16.11
2023-03-17T19:08:39.625Z,16.50
2023-03-17T19:13:45.642Z,16.45
2023-03-17T19:18:49.378Z,15.92
2023-03-17T19:23:53.933Z,16.31
2023-03-17T19:28:58.999Z,16.12
2023-03-17T19:34:02.989Z,16.18
2023-03-17T19:39:07.743Z,16.12
2023-03-17T19:44:12.828Z,16.10
2023-03-17T19:49:17.048Z,16.01
2023-03-17T19:54:23.397Z,15.61
2023-03-17T19:59:28.513Z,15.91
2023-03-17T20:04:32.122Z,15.81
2023-03-17T20:09:37.889Z,15.47
2023-03-17T20:14:42.937Z,15.61
2023-03-17T20:19:46.959Z,15.61
2023-03-17T20:24:50.579Z,15.56
2023-03-17T20:29:58.604Z,14.74
2023-03-17T20:35:02.775Z,15.20
2023-03-17T20:40:09.614Z,15.42
2023-03-17T20:45:14.779Z,13.94
2023-03-17T20:50:18.718Z,14.78
2023-03-17T20:55:22.427Z,14.21
2023-03-17T21:00:27.972Z,15.06
2023-03-17T21:05:32.661Z,14.76
2023-03-17T21:10:36.679Z,14.89
2023-03-17T21:15:42.410Z,14.77
2023-03-17T21:20:46.362Z,14.55
2023-03-17T21:25:55.251Z,15.09
2023-03-17T21:31:00.227Z,14.60
2023-03-17T21:36:03.995Z,14.33
2023-03-17T21:41:22.507Z,14.27
2023-03-17T21:46:27.876Z,13.75
2023-03-17T21:51:32.791Z,14.66
2023-03-17T21:56:39.694Z,14.58
2023-03-17T22:01:44.698Z,11.89
2023-03-17T22:06:48.444Z,12.59
2023-03-17T22:11:52.011Z,14.02
2023-03-17T22:16:57.439Z,14.31
2023-03-17T22:22:02.007Z,14.06
2023-03-17T22:27:06.346Z,14.18
2023-03-17T22:32:11.882Z,13.47
2023-03-17T22:37:15.638Z,14.08
2023-03-17T22:42:19.051Z,13.62
2023-03-17T22:47:24.048Z,13.76
2023-03-17T22:52:27.937Z,13.44
2023-03-17T22:57:31.848Z,13.72
2023-03-17T23:02:36.683Z,13.88
2023-03-17T23:07:50.466Z,13.60
2023-03-17T23:12:54.683Z,13.44
2023-03-17T23:17:59.944Z,13.51
2023-03-17T23:23:03.547Z,13.84
2023-03-17T23:28:07.680Z,13.76
2023-03-17T23:33:13.524Z,13.36
2023-03-17T23:38:19.464Z,13.84
2023-03-17T23:43:27.485Z,13.59
2023-03-17T23:48:32.757Z,13.89
2023-03-17T23:53:36.656Z,13.76
2023-03-17T23:58:41.015Z,13.67
